Butte, Nebraska
Current Conditions -  °F | °C
As of 7:35 PM on Friday 21 Nov 2014 (Local Time) from KONL Reporting Station
Clear Clear  
Wind Chill: 37°   Ceiling: Unl
Heat Index: 41°   Visibility: 10mi
Dew Point: 34°   Wind: 7mph
Humidity: 74%   Direction: 180°S
Pressure: 29.89"   Gusts: NA
Location:  42.91°N, 98.85°W
Report Text: KONL 220135Z AUTO 18006KT 10SM CLR 05/01 A2989 RMK AO2 T00520010
Loading
Personal Weather Stations






























Interactive Weather Map New forecast layout! Learn more

10-Day Weather Forecast

Advertisements
Track Severe Weather on mobile